createdAt,value
2019-03-15T00:00:05.316Z,74.83
2019-03-15T00:00:36.579Z,74.72
2019-03-15T00:01:07.796Z,74.83
2019-03-15T00:01:39.000Z,74.95
2019-03-15T00:02:10.234Z,74.94
2019-03-15T00:02:41.423Z,74.75
2019-03-15T00:03:12.618Z,74.62
2019-03-15T00:03:43.824Z,74.63
2019-03-15T00:04:15.026Z,74.74
2019-03-15T00:04:46.223Z,74.86
2019-03-15T00:05:17.440Z,74.87
2019-03-15T00:05:48.667Z,74.76
2019-03-15T00:06:19.935Z,74.84
2019-03-15T00:06:51.168Z,75.05
2019-03-15T00:07:22.370Z,75.04
2019-03-15T00:07:53.573Z,74.98
2019-03-15T00:08:24.830Z,74.70
2019-03-15T00:08:56.063Z,74.61
2019-03-15T00:09:27.319Z,74.49
2019-03-15T00:09:58.542Z,74.45
2019-03-15T00:10:29.753Z,74.30
2019-03-15T00:11:00.945Z,74.35
2019-03-15T00:11:32.142Z,74.36
2019-03-15T00:12:03.338Z,74.35
2019-03-15T00:12:34.543Z,74.42
2019-03-15T00:13:05.751Z,74.46
2019-03-15T00:13:36.953Z,74.58
2019-03-15T00:14:08.153Z,74.50
2019-03-15T00:14:39.360Z,74.58
2019-03-15T00:15:10.560Z,74.79
2019-03-15T00:15:41.788Z,75.00
2019-03-15T00:16:12.970Z,75.18
2019-03-15T00:16:44.210Z,75.03
2019-03-15T00:17:15.419Z,75.08
2019-03-15T00:17:46.622Z,75.28
2019-03-15T00:18:17.837Z,75.54
2019-03-15T00:18:49.035Z,75.45
2019-03-15T00:19:20.244Z,75.40
2019-03-15T00:19:51.467Z,75.45
2019-03-15T00:20:22.654Z,75.42
2019-03-15T00:20:53.850Z,75.43
2019-03-15T00:21:25.062Z,75.53
2019-03-15T00:21:56.304Z,75.53
2019-03-15T00:22:27.504Z,75.86
2019-03-15T00:22:58.718Z,76.09
2019-03-15T00:23:29.931Z,75.52
2019-03-15T00:24:01.130Z,75.31
2019-03-15T00:24:32.343Z,75.17
2019-03-15T00:25:03.535Z,75.14
2019-03-15T00:25:34.733Z,75.02
2019-03-15T00:26:05.939Z,75.07
2019-03-15T00:26:37.183Z,75.18
2019-03-15T00:27:08.425Z,75.31
2019-03-15T00:27:39.643Z,75.56
2019-03-15T00:28:10.863Z,75.89
2019-03-15T00:28:42.151Z,75.78
2019-03-15T00:29:13.350Z,75.76
2019-03-15T00:29:44.560Z,75.68
2019-03-15T00:30:15.767Z,75.50
2019-03-15T00:30:47.079Z,75.23
2019-03-15T00:31:18.329Z,75.29
2019-03-15T00:31:49.549Z,75.24
2019-03-15T00:32:20.743Z,75.26
2019-03-15T00:32:51.952Z,75.07
2019-03-15T00:33:23.191Z,75.00
2019-03-15T00:33:54.412Z,75.11
2019-03-15T00:34:25.599Z,75.26
2019-03-15T00:34:56.789Z,75.37
2019-03-15T00:35:27.994Z,75.40
2019-03-15T00:35:59.194Z,75.42
2019-03-15T00:36:30.393Z,75.44
2019-03-15T00:37:01.606Z,75.56
2019-03-15T00:37:32.808Z,75.57
2019-03-15T00:38:04.121Z,75.52
2019-03-15T00:38:35.330Z,75.43
2019-03-15T00:39:06.539Z,75.31
2019-03-15T00:39:37.736Z,75.29
2019-03-15T00:40:08.935Z,75.19
2019-03-15T00:40:40.136Z,75.14
2019-03-15T00:41:11.334Z,75.12
2019-03-15T00:41:42.534Z,74.97
2019-03-15T00:42:13.729Z,74.96
2019-03-15T00:42:44.975Z,75.04
2019-03-15T00:43:16.188Z,74.98
2019-03-15T00:43:49.473Z,74.91
2019-03-15T00:44:20.324Z,74.60
2019-03-15T00:44:51.526Z,74.47
2019-03-15T00:45:22.746Z,74.52
2019-03-15T00:45:53.945Z,74.54
2019-03-15T00:46:25.164Z,74.41
2019-03-15T00:46:56.366Z,74.48
2019-03-15T00:47:27.627Z,74.63
2019-03-15T00:47:58.833Z,74.79
2019-03-15T00:48:30.032Z,74.89
2019-03-15T00:49:01.238Z,74.85
2019-03-15T00:49:32.436Z,74.93
2019-03-15T00:50:03.634Z,75.06
2019-03-15T00:50:34.857Z,75.12
2019-03-15T00:51:06.051Z,75.20
2019-03-15T00:51:37.254Z,75.35
2019-03-15T00:52:08.450Z,75.39
2019-03-15T00:52:39.701Z,75.42
2019-03-15T00:53:10.924Z,75.31
2019-03-15T00:53:42.129Z,75.13
2019-03-15T00:54:13.315Z,75.05
2019-03-15T00:54:44.529Z,75.10
2019-03-15T00:55:15.741Z,74.93
2019-03-15T00:55:46.942Z,75.01
2019-03-15T00:56:18.139Z,74.73
2019-03-15T00:56:49.337Z,74.22
2019-03-15T00:57:20.536Z,74.10
2019-03-15T00:57:51.798Z,74.14
2019-03-15T00:58:23.007Z,74.20
2019-03-15T00:58:54.212Z,74.28
2019-03-15T00:59:25.417Z,74.39
2019-03-15T00:59:56.619Z,74.47
2019-03-15T01:00:27.845Z,74.58
2019-03-15T01:00:59.024Z,74.71
2019-03-15T01:01:30.236Z,74.73
2019-03-15T01:02:01.426Z,74.32
2019-03-15T01:02:32.632Z,73.96
2019-03-15T01:03:03.867Z,74.14
2019-03-15T01:03:35.069Z,74.52
2019-03-15T01:04:09.313Z,74.77
2019-03-15T01:04:39.189Z,74.92
2019-03-15T01:05:10.402Z,75.01
2019-03-15T01:05:41.611Z,75.10
2019-03-15T01:06:12.818Z,75.08
2019-03-15T01:06:44.062Z,74.81
2019-03-15T01:07:15.262Z,74.82
2019-03-15T01:07:46.481Z,74.85
2019-03-15T01:08:17.698Z,74.88
2019-03-15T01:08:48.914Z,74.82
2019-03-15T01:09:20.116Z,74.70
2019-03-15T01:09:51.319Z,74.77
2019-03-15T01:10:22.532Z,74.43
2019-03-15T01:10:53.782Z,74.38
2019-03-15T01:11:24.975Z,74.57
2019-03-15T01:11:56.171Z,74.64
2019-03-15T01:12:27.390Z,74.57
2019-03-15T01:12:58.576Z,74.62
2019-03-15T01:13:29.776Z,74.96
2019-03-15T01:14:00.976Z,75.34
2019-03-15T01:14:32.204Z,75.38
2019-03-15T01:15:03.407Z,75.61
2019-03-15T01:15:34.628Z,75.88
2019-03-15T01:16:05.923Z,75.46
2019-03-15T01:16:37.109Z,75.27
2019-03-15T01:17:08.323Z,75.15
2019-03-15T01:17:39.530Z,75.08
2019-03-15T01:18:10.725Z,75.17
2019-03-15T01:18:41.934Z,75.07
2019-03-15T01:19:13.128Z,75.05
2019-03-15T01:19:44.349Z,75.15
2019-03-15T01:20:15.545Z,75.39
2019-03-15T01:20:46.803Z,75.43
2019-03-15T01:21:18.072Z,75.45
2019-03-15T01:21:49.289Z,75.50
2019-03-15T01:22:20.477Z,75.60
2019-03-15T01:22:51.670Z,75.61
2019-03-15T01:23:22.906Z,75.60
2019-03-15T01:23:54.129Z,75.64
2019-03-15T01:24:25.330Z,75.56
2019-03-15T01:24:56.627Z,75.51
2019-03-15T01:25:27.867Z,75.59
2019-03-15T01:25:59.152Z,75.69
2019-03-15T01:26:30.362Z,75.83
2019-03-15T01:27:01.566Z,75.87
2019-03-15T01:27:32.838Z,75.81
2019-03-15T01:28:04.040Z,75.78
2019-03-15T01:28:35.239Z,75.61
2019-03-15T01:29:06.486Z,75.27
2019-03-15T01:29:37.675Z,75.30
2019-03-15T01:30:08.878Z,75.41
2019-03-15T01:30:40.135Z,75.37
2019-03-15T01:31:11.333Z,75.17
2019-03-15T01:31:42.539Z,75.02
2019-03-15T01:32:13.754Z,75.15
2019-03-15T01:32:44.955Z,75.12
2019-03-15T01:33:16.226Z,75.23
2019-03-15T01:33:47.428Z,75.38
2019-03-15T01:34:18.674Z,75.22
2019-03-15T01:34:49.909Z,75.18
2019-03-15T01:35:22.049Z,75.10
2019-03-15T01:35:53.257Z,74.79
2019-03-15T01:36:24.446Z,74.86
2019-03-15T01:36:55.655Z,74.97
2019-03-15T01:37:26.880Z,75.17
2019-03-15T01:37:58.093Z,75.19
2019-03-15T01:38:29.331Z,74.96
2019-03-15T01:39:00.544Z,74.92
2019-03-15T01:39:31.755Z,74.99
2019-03-15T01:40:02.952Z,75.05
2019-03-15T01:40:34.165Z,74.91
2019-03-15T01:41:05.379Z,74.82
2019-03-15T01:41:36.642Z,74.25
2019-03-15T01:42:07.848Z,74.42
2019-03-15T01:42:39.063Z,74.46
2019-03-15T01:43:10.288Z,74.72
2019-03-15T01:43:41.551Z,74.64
2019-03-15T01:44:12.750Z,74.38
2019-03-15T01:44:43.951Z,74.45
2019-03-15T01:45:15.145Z,74.42
2019-03-15T01:45:46.349Z,74.49
2019-03-15T01:46:17.557Z,74.67
2019-03-15T01:46:48.770Z,74.71
2019-03-15T01:47:19.975Z,74.86
2019-03-15T01:47:51.181Z,74.77
2019-03-15T01:48:22.380Z,74.60
2019-03-15T01:48:53.589Z,74.77
2019-03-15T01:49:24.795Z,74.94
2019-03-15T01:49:55.986Z,75.01
2019-03-15T01:50:27.225Z,75.01
2019-03-15T01:50:58.429Z,75.12
2019-03-15T01:51:29.627Z,75.25
2019-03-15T01:52:00.835Z,75.22
2019-03-15T01:52:32.105Z,75.26
2019-03-15T01:53:03.310Z,75.27
2019-03-15T01:53:34.500Z,75.32
2019-03-15T01:54:05.703Z,75.65
2019-03-15T01:54:36.919Z,75.74
2019-03-15T01:55:08.159Z,75.92
2019-03-15T01:55:39.386Z,76.30
2019-03-15T01:56:10.570Z,76.60
2019-03-15T01:56:41.777Z,76.45
2019-03-15T01:57:12.978Z,76.33
2019-03-15T01:57:44.208Z,76.10
2019-03-15T01:58:15.450Z,75.95
2019-03-15T01:58:46.658Z,75.85
2019-03-15T01:59:17.862Z,75.85
2019-03-15T01:59:49.085Z,75.79
2019-03-15T02:00:20.276Z,75.82
2019-03-15T02:00:51.504Z,75.86
2019-03-15T02:01:22.711Z,75.94
2019-03-15T02:01:53.920Z,75.99
2019-03-15T02:02:25.170Z,76.04
2019-03-15T02:02:56.375Z,76.16
2019-03-15T02:03:27.663Z,76.33
2019-03-15T02:03:58.876Z,76.05
2019-03-15T02:04:30.072Z,75.95
2019-03-15T02:05:01.279Z,75.96
2019-03-15T02:05:32.490Z,75.89
2019-03-15T02:06:03.743Z,75.93
2019-03-15T02:06:34.900Z,76.01
2019-03-15T02:07:06.104Z,76.10
2019-03-15T02:07:37.311Z,76.21
2019-03-15T02:08:08.524Z,76.33
2019-03-15T02:08:39.736Z,76.13
2019-03-15T02:09:10.979Z,75.94
2019-03-15T02:09:42.186Z,75.85
2019-03-15T02:10:13.390Z,75.97
2019-03-15T02:10:44.608Z,76.08
2019-03-15T02:11:15.820Z,76.14
2019-03-15T02:11:47.038Z,76.13
2019-03-15T02:12:18.289Z,76.09
2019-03-15T02:12:49.478Z,75.89
2019-03-15T02:13:20.679Z,75.75
2019-03-15T02:13:51.871Z,75.63
2019-03-15T02:14:23.066Z,75.65
2019-03-15T02:14:54.257Z,75.80
2019-03-15T02:15:25.456Z,75.82
2019-03-15T02:15:56.666Z,75.79
2019-03-15T02:16:27.864Z,75.77
2019-03-15T02:16:59.072Z,75.79
2019-03-15T02:17:30.309Z,75.85
2019-03-15T02:18:01.565Z,75.90
2019-03-15T02:18:32.761Z,75.71
2019-03-15T02:19:03.967Z,75.38
2019-03-15T02:19:35.484Z,75.42
2019-03-15T02:20:06.857Z,75.62
2019-03-15T02:20:38.059Z,75.71
2019-03-15T02:21:09.262Z,75.81
2019-03-15T02:21:40.462Z,75.85
2019-03-15T02:22:11.667Z,75.46
2019-03-15T02:22:42.879Z,75.23
2019-03-15T02:23:14.147Z,75.22
2019-03-15T02:23:45.335Z,74.97
2019-03-15T02:24:16.537Z,75.08
2019-03-15T02:24:47.730Z,74.43
2019-03-15T02:25:18.939Z,74.57
2019-03-15T02:25:50.150Z,74.74
2019-03-15T02:26:21.346Z,74.77
2019-03-15T02:26:52.553Z,74.65
2019-03-15T02:27:23.766Z,74.84
2019-03-15T02:27:54.974Z,74.94
2019-03-15T02:28:26.208Z,75.02
2019-03-15T02:28:57.421Z,75.04
2019-03-15T02:29:28.611Z,75.18
2019-03-15T02:29:59.823Z,75.04
2019-03-15T02:30:31.044Z,74.99
2019-03-15T02:31:02.252Z,75.13
2019-03-15T02:31:33.459Z,74.98
2019-03-15T02:32:04.657Z,74.95
2019-03-15T02:32:35.912Z,75.04
2019-03-15T02:33:07.137Z,74.97
2019-03-15T02:33:38.322Z,75.06
2019-03-15T02:34:09.558Z,75.15
2019-03-15T02:34:40.749Z,75.16
2019-03-15T02:35:11.967Z,75.14
2019-03-15T02:35:43.207Z,75.15
2019-03-15T02:36:14.404Z,75.19
2019-03-15T02:36:45.626Z,75.18
2019-03-15T02:37:16.818Z,75.24
2019-03-15T02:37:48.024Z,75.23
2019-03-15T02:38:19.227Z,74.95
2019-03-15T02:38:50.425Z,74.79
2019-03-15T02:39:21.633Z,74.61
2019-03-15T02:39:52.823Z,74.37
2019-03-15T02:40:24.032Z,74.29
2019-03-15T02:40:55.275Z,74.37
2019-03-15T02:41:26.549Z,74.40
2019-03-15T02:41:59.039Z,74.45
2019-03-15T02:42:30.497Z,74.36
2019-03-15T02:43:01.751Z,74.28
2019-03-15T02:43:32.997Z,74.30
2019-03-15T02:44:04.202Z,74.32
2019-03-15T02:44:35.411Z,74.32
2019-03-15T02:45:06.627Z,74.48
2019-03-15T02:45:37.824Z,74.67
2019-03-15T02:46:09.069Z,74.32
2019-03-15T02:46:40.269Z,73.83
2019-03-15T02:47:11.481Z,73.71
2019-03-15T02:47:42.688Z,73.72
2019-03-15T02:48:13.881Z,73.81
2019-03-15T02:48:45.090Z,73.87
2019-03-15T02:49:16.272Z,73.78
2019-03-15T02:49:47.485Z,73.57
2019-03-15T02:50:18.690Z,73.35
2019-03-15T02:50:49.901Z,73.44
2019-03-15T02:51:21.184Z,73.48
2019-03-15T02:51:52.345Z,73.52
2019-03-15T02:52:23.595Z,73.31
2019-03-15T02:52:54.807Z,73.32
2019-03-15T02:53:26.006Z,73.43
2019-03-15T02:53:57.214Z,73.36
2019-03-15T02:54:28.411Z,73.36
2019-03-15T02:54:59.626Z,73.36
2019-03-15T02:55:30.807Z,73.54
2019-03-15T02:56:02.052Z,73.47
2019-03-15T02:56:33.261Z,73.49
2019-03-15T02:57:04.476Z,73.53
2019-03-15T02:57:35.978Z,73.63
2019-03-15T02:58:07.167Z,73.46
2019-03-15T02:58:38.368Z,73.40
2019-03-15T02:59:09.705Z,73.15
2019-03-15T02:59:40.863Z,72.91
2019-03-15T03:00:12.079Z,73.17
2019-03-15T03:00:43.274Z,73.19
2019-03-15T03:01:14.506Z,72.96
2019-03-15T03:01:45.721Z,72.85
2019-03-15T03:02:16.920Z,72.94
2019-03-15T03:02:48.158Z,72.89
2019-03-15T03:03:20.713Z,72.79
2019-03-15T03:03:52.062Z,72.66
2019-03-15T03:04:23.261Z,72.80
2019-03-15T03:04:54.474Z,72.90
2019-03-15T03:05:25.678Z,72.47
2019-03-15T03:05:56.882Z,72.43
2019-03-15T03:06:28.506Z,72.39
2019-03-15T03:06:59.998Z,72.48
2019-03-15T03:07:31.192Z,72.63
2019-03-15T03:08:02.400Z,72.96
2019-03-15T03:08:33.607Z,72.99
2019-03-15T03:09:04.849Z,73.32
2019-03-15T03:09:36.064Z,73.41
2019-03-15T03:10:07.243Z,73.33
2019-03-15T03:10:38.441Z,73.11
2019-03-15T03:11:09.638Z,72.95
2019-03-15T03:11:40.884Z,72.36
2019-03-15T03:12:12.091Z,72.26
2019-03-15T03:12:43.999Z,72.32
2019-03-15T03:13:15.507Z,72.30
2019-03-15T03:13:46.721Z,72.31
2019-03-15T03:14:17.948Z,72.10
2019-03-15T03:14:49.166Z,72.31
2019-03-15T03:15:20.353Z,72.29
2019-03-15T03:15:52.110Z,71.36
2019-03-15T03:16:23.542Z,71.17
2019-03-15T03:16:54.749Z,71.30
2019-03-15T03:17:25.964Z,71.59
2019-03-15T03:17:57.228Z,71.58
2019-03-15T03:18:28.423Z,71.66
2019-03-15T03:19:00.618Z,72.01
2019-03-15T03:19:32.501Z,71.91
2019-03-15T03:20:03.726Z,71.96
2019-03-15T03:20:34.894Z,72.04
2019-03-15T03:21:06.097Z,72.31
2019-03-15T03:21:37.300Z,72.06
2019-03-15T03:22:09.249Z,71.74
2019-03-15T03:22:40.582Z,72.12
2019-03-15T03:23:11.785Z,73.41
2019-03-15T03:23:43.001Z,73.36
2019-03-15T03:24:14.232Z,72.77
2019-03-15T03:24:45.437Z,72.61
2019-03-15T03:25:17.386Z,72.15
2019-03-15T03:25:48.919Z,72.44
2019-03-15T03:26:20.128Z,72.92
2019-03-15T03:26:51.322Z,72.85
2019-03-15T03:27:22.521Z,72.43
2019-03-15T03:27:53.729Z,72.41
2019-03-15T03:28:25.045Z,71.92
2019-03-15T03:28:56.244Z,71.98
2019-03-15T03:29:27.444Z,72.01
2019-03-15T03:29:58.648Z,72.25
2019-03-15T03:30:30.604Z,72.52
2019-03-15T03:31:01.826Z,73.30
2019-03-15T03:31:33.261Z,73.59
2019-03-15T03:32:04.607Z,72.96
2019-03-15T03:32:35.833Z,72.69
2019-03-15T03:33:07.064Z,72.88
2019-03-15T03:33:40.556Z,73.06
2019-03-15T03:34:12.667Z,73.21
2019-03-15T03:34:44.225Z,72.81
2019-03-15T03:35:15.426Z,72.91
2019-03-15T03:35:46.641Z,72.76
2019-03-15T03:36:17.900Z,72.79
2019-03-15T03:36:49.099Z,72.76
2019-03-15T03:37:20.302Z,72.75
2019-03-15T03:37:51.513Z,72.79
2019-03-15T03:38:22.727Z,72.81
2019-03-15T03:38:53.963Z,72.91
2019-03-15T03:39:25.208Z,72.98
2019-03-15T03:39:56.357Z,73.10
2019-03-15T03:40:29.131Z,73.22
2019-03-15T03:41:00.500Z,73.34
2019-03-15T03:41:31.747Z,73.43
2019-03-15T03:42:02.946Z,73.68
2019-03-15T03:42:34.145Z,73.90
2019-03-15T03:43:05.346Z,74.09
2019-03-15T03:43:36.535Z,74.24
2019-03-15T03:44:07.740Z,74.27
2019-03-15T03:44:38.983Z,74.37
2019-03-15T03:45:10.173Z,74.37
2019-03-15T03:45:41.367Z,74.35
2019-03-15T03:46:12.578Z,74.49
2019-03-15T03:46:43.788Z,74.43
2019-03-15T03:47:15.005Z,74.31
2019-03-15T03:47:46.249Z,74.19
2019-03-15T03:48:17.452Z,74.23
2019-03-15T03:48:48.644Z,74.16
2019-03-15T03:49:19.860Z,74.29
2019-03-15T03:49:51.053Z,74.48
2019-03-15T03:50:22.295Z,74.60
2019-03-15T03:50:53.540Z,74.72
2019-03-15T03:51:24.705Z,74.74
2019-03-15T03:51:55.943Z,74.90
2019-03-15T03:52:27.142Z,75.00
2019-03-15T03:52:58.342Z,75.22
2019-03-15T03:53:29.541Z,75.13
2019-03-15T03:54:00.738Z,75.07
2019-03-15T03:54:31.951Z,75.36
2019-03-15T03:55:03.189Z,75.68
2019-03-15T03:55:34.399Z,76.14
2019-03-15T03:56:05.656Z,76.21
2019-03-15T03:56:36.851Z,75.96
2019-03-15T03:57:08.192Z,75.67
2019-03-15T03:57:39.343Z,75.54
2019-03-15T03:58:10.544Z,75.26
2019-03-15T03:58:41.747Z,75.24
2019-03-15T03:59:13.182Z,75.87
2019-03-15T03:59:44.357Z,75.77
2019-03-15T04:00:15.559Z,75.64
2019-03-15T04:00:46.795Z,75.11
2019-03-15T04:01:18.137Z,74.35
2019-03-15T04:01:49.375Z,74.19
2019-03-15T04:02:20.586Z,74.04
2019-03-15T04:02:53.287Z,73.73
2019-03-15T04:03:24.773Z,73.24
2019-03-15T04:03:56.335Z,73.01
2019-03-15T04:04:27.583Z,72.95
2019-03-15T04:04:58.795Z,73.05
2019-03-15T04:05:30.006Z,73.43
2019-03-15T04:06:01.217Z,73.72
2019-03-15T04:06:32.416Z,73.70
2019-03-15T04:07:03.620Z,73.61
2019-03-15T04:07:34.863Z,73.70
2019-03-15T04:08:06.061Z,73.93
2019-03-15T04:08:37.262Z,74.22
2019-03-15T04:09:08.508Z,74.38
2019-03-15T04:09:39.720Z,74.44
2019-03-15T04:10:10.976Z,74.50
2019-03-15T04:10:42.224Z,74.60
2019-03-15T04:11:13.468Z,74.66
2019-03-15T04:11:54.938Z,74.85
2019-03-15T04:12:17.647Z,74.93
2019-03-15T04:12:48.842Z,75.07
2019-03-15T04:13:20.047Z,75.17
2019-03-15T04:13:51.248Z,75.39
2019-03-15T04:14:22.442Z,75.52
2019-03-15T04:14:53.664Z,75.61
2019-03-15T04:15:24.861Z,75.63
2019-03-15T04:15:56.081Z,75.81
2019-03-15T04:16:27.320Z,75.93
2019-03-15T04:16:58.543Z,76.09
2019-03-15T04:17:29.745Z,76.19
2019-03-15T04:18:01.029Z,75.93
2019-03-15T04:18:32.201Z,76.02
2019-03-15T04:19:03.421Z,75.95
2019-03-15T04:19:34.615Z,75.93
2019-03-15T04:20:05.857Z,75.93
2019-03-15T04:20:37.063Z,75.92
2019-03-15T04:21:08.250Z,76.11
2019-03-15T04:21:39.466Z,76.15
2019-03-15T04:22:10.667Z,76.09
2019-03-15T04:22:41.887Z,76.22
2019-03-15T04:23:13.120Z,76.14
2019-03-15T04:23:44.292Z,76.29
2019-03-15T04:24:15.501Z,76.55
2019-03-15T04:24:46.734Z,76.57
2019-03-15T04:25:17.930Z,76.49
2019-03-15T04:25:49.127Z,76.43
2019-03-15T04:26:20.350Z,76.34
2019-03-15T04:26:51.589Z,76.44
2019-03-15T04:27:22.848Z,76.61
2019-03-15T04:27:54.095Z,76.67
2019-03-15T04:28:25.309Z,76.75
2019-03-15T04:28:57.124Z,76.70
2019-03-15T04:29:28.490Z,76.69
2019-03-15T04:29:59.778Z,76.80
2019-03-15T04:30:31.008Z,76.84
2019-03-15T04:31:02.198Z,76.77
2019-03-15T04:31:33.422Z,76.84
2019-03-15T04:32:04.622Z,76.68
2019-03-15T04:32:35.851Z,76.66
2019-03-15T04:33:07.101Z,76.60
2019-03-15T04:33:38.304Z,76.64
2019-03-15T04:34:09.531Z,76.96
2019-03-15T04:34:40.721Z,76.99
2019-03-15T04:35:12.036Z,76.82
2019-03-15T04:35:43.242Z,76.78
2019-03-15T04:36:14.445Z,76.75
2019-03-15T04:36:45.661Z,76.53
2019-03-15T04:37:16.860Z,76.63
2019-03-15T04:37:48.063Z,76.67
2019-03-15T04:38:19.299Z,76.69
2019-03-15T04:38:50.495Z,76.71
2019-03-15T04:39:21.706Z,76.89
2019-03-15T04:39:52.902Z,76.77
2019-03-15T04:40:24.437Z,76.71
2019-03-15T04:40:55.667Z,76.66
2019-03-15T04:41:26.837Z,76.67
2019-03-15T04:41:58.046Z,76.66
2019-03-15T04:42:29.260Z,76.46
2019-03-15T04:43:00.501Z,76.30
2019-03-15T04:43:31.667Z,76.31
2019-03-15T04:44:02.859Z,76.54
2019-03-15T04:44:34.104Z,76.50
2019-03-15T04:45:05.325Z,76.31
2019-03-15T04:45:36.579Z,76.08
2019-03-15T04:46:07.779Z,75.96
2019-03-15T04:46:39.033Z,76.06
2019-03-15T04:47:10.193Z,75.94
2019-03-15T04:47:43.563Z,75.83
2019-03-15T04:48:14.327Z,75.43
2019-03-15T04:48:45.534Z,75.49
2019-03-15T04:49:16.721Z,75.52
2019-03-15T04:49:47.942Z,75.49
2019-03-15T04:50:19.149Z,75.53
2019-03-15T04:50:50.384Z,75.68
2019-03-15T04:51:21.581Z,75.55
2019-03-15T04:51:52.808Z,75.09
2019-03-15T04:52:24.065Z,75.12
2019-03-15T04:52:55.262Z,75.26
2019-03-15T04:53:26.515Z,75.26
2019-03-15T04:53:57.750Z,75.30
2019-03-15T04:54:28.969Z,75.20
2019-03-15T04:55:00.358Z,75.19
2019-03-15T04:55:31.548Z,75.22
2019-03-15T04:56:02.750Z,75.17
2019-03-15T04:56:33.993Z,75.13
2019-03-15T04:57:05.214Z,75.07
2019-03-15T04:57:36.419Z,75.11
2019-03-15T04:58:07.633Z,75.31
2019-03-15T04:58:38.925Z,75.15
2019-03-15T04:59:10.116Z,75.09
2019-03-15T04:59:41.321Z,74.96
2019-03-15T05:00:12.515Z,75.00
2019-03-15T05:00:43.761Z,74.95
2019-03-15T05:01:14.962Z,74.90
2019-03-15T05:01:46.175Z,74.82
2019-03-15T05:02:17.384Z,74.56
2019-03-15T05:02:48.661Z,74.33
2019-03-15T05:03:19.851Z,74.23
2019-03-15T05:03:51.053Z,74.31
2019-03-15T05:04:22.247Z,74.46
2019-03-15T05:04:53.445Z,73.99
2019-03-15T05:05:24.647Z,74.10
2019-03-15T05:06:03.054Z,74.23
2019-03-15T05:06:28.783Z,74.25
2019-03-15T05:06:59.987Z,74.13
2019-03-15T05:07:31.189Z,74.44
2019-03-15T05:08:02.445Z,74.18
2019-03-15T05:08:33.653Z,74.25
2019-03-15T05:09:04.863Z,74.12
2019-03-15T05:09:36.057Z,73.99
2019-03-15T05:10:07.253Z,74.03
2019-03-15T05:10:38.463Z,73.94
2019-03-15T05:11:09.686Z,73.69
2019-03-15T05:11:40.897Z,73.74
2019-03-15T05:12:12.160Z,73.91
2019-03-15T05:12:43.358Z,73.98
2019-03-15T05:13:14.558Z,73.70
2019-03-15T05:13:45.789Z,73.44
2019-03-15T05:14:16.989Z,73.46
2019-03-15T05:14:48.205Z,73.48
2019-03-15T05:15:19.410Z,73.54
2019-03-15T05:15:50.611Z,73.54
2019-03-15T05:16:21.835Z,73.32
2019-03-15T05:16:53.066Z,73.40
2019-03-15T05:17:24.330Z,73.51
2019-03-15T05:17:55.539Z,73.61
2019-03-15T05:18:26.738Z,73.65
2019-03-15T05:18:57.970Z,73.68
2019-03-15T05:19:29.189Z,73.68
2019-03-15T05:20:00.425Z,73.40
2019-03-15T05:20:31.637Z,73.45
2019-03-15T05:21:02.799Z,73.47
2019-03-15T05:21:34.020Z,73.47
2019-03-15T05:22:05.232Z,73.57
2019-03-15T05:22:36.481Z,73.71
2019-03-15T05:23:07.689Z,73.72
2019-03-15T05:23:38.895Z,73.77
2019-03-15T05:24:10.112Z,73.80
2019-03-15T05:24:41.325Z,73.71
2019-03-15T05:25:12.543Z,73.60
2019-03-15T05:25:43.752Z,73.60
2019-03-15T05:26:15.009Z,73.67
2019-03-15T05:26:46.189Z,73.98
2019-03-15T05:27:17.403Z,73.92
2019-03-15T05:27:48.612Z,73.24
2019-03-15T05:28:19.821Z,73.24
2019-03-15T05:28:51.012Z,72.91
2019-03-15T05:29:22.253Z,73.03
2019-03-15T05:29:53.467Z,72.95
2019-03-15T05:30:24.673Z,73.05
2019-03-15T05:30:55.885Z,73.09
2019-03-15T05:31:27.159Z,72.70
2019-03-15T05:31:58.356Z,72.40
2019-03-15T05:32:31.044Z,71.57
2019-03-15T05:33:02.540Z,71.65
2019-03-15T05:33:33.809Z,71.94
2019-03-15T05:34:05.014Z,71.95
2019-03-15T05:34:36.190Z,72.02
2019-03-15T05:35:07.393Z,71.97
2019-03-15T05:35:38.599Z,71.75
2019-03-15T05:36:09.858Z,71.69
2019-03-15T05:36:41.062Z,72.12
2019-03-15T05:37:12.262Z,71.85
2019-03-15T05:37:43.518Z,71.64
2019-03-15T05:38:14.716Z,71.31
2019-03-15T05:38:45.927Z,71.20
2019-03-15T05:39:17.132Z,71.28
2019-03-15T05:39:48.329Z,71.06
2019-03-15T05:40:19.575Z,71.12
2019-03-15T05:40:50.810Z,71.04
2019-03-15T05:41:22.019Z,71.08
2019-03-15T05:41:53.220Z,71.26
2019-03-15T05:42:24.431Z,71.38
2019-03-15T05:42:55.631Z,71.50
2019-03-15T05:43:26.828Z,71.52
2019-03-15T05:43:58.076Z,71.44
2019-03-15T05:44:29.266Z,71.48
2019-03-15T05:45:00.496Z,71.50
2019-03-15T05:45:31.698Z,71.58
2019-03-15T05:46:02.909Z,72.17
2019-03-15T05:46:34.114Z,72.25
2019-03-15T05:47:05.315Z,71.41
2019-03-15T05:47:36.569Z,71.09
2019-03-15T05:48:07.756Z,70.74
2019-03-15T05:48:38.988Z,70.89
2019-03-15T05:49:10.244Z,70.97
2019-03-15T05:49:41.447Z,70.74
2019-03-15T05:50:12.654Z,69.93
2019-03-15T05:50:43.902Z,68.91
2019-03-15T05:51:15.104Z,68.45
2019-03-15T05:51:46.299Z,68.11
2019-03-15T05:52:17.545Z,68.88
2019-03-15T05:52:48.743Z,68.37
2019-03-15T05:53:19.962Z,67.48
2019-03-15T05:53:51.189Z,66.57
2019-03-15T05:54:22.405Z,66.93
2019-03-15T05:54:53.610Z,66.91
2019-03-15T05:55:24.806Z,66.74
2019-03-15T05:55:56.011Z,66.34
2019-03-15T05:56:27.219Z,66.19
2019-03-15T05:56:58.435Z,66.21
2019-03-15T05:57:29.642Z,65.85
2019-03-15T05:58:00.881Z,65.53
2019-03-15T05:58:32.105Z,65.43
2019-03-15T05:59:03.355Z,65.24
2019-03-15T05:59:34.638Z,65.34
2019-03-15T06:00:05.818Z,65.25
2019-03-15T06:00:37.022Z,65.30
2019-03-15T06:01:08.239Z,64.83
2019-03-15T06:01:39.469Z,65.17
2019-03-15T06:02:10.669Z,65.39
2019-03-15T06:02:41.874Z,65.05
2019-03-15T06:03:13.447Z,63.72
2019-03-15T06:03:48.881Z,63.72
2019-03-15T06:04:17.604Z,63.49
2019-03-15T06:04:48.824Z,63.44
2019-03-15T06:05:20.074Z,63.76
2019-03-15T06:05:51.294Z,63.00
2019-03-15T06:06:22.499Z,62.64
2019-03-15T06:06:53.720Z,62.01
2019-03-15T06:07:24.987Z,61.90
2019-03-15T06:07:56.284Z,62.42
2019-03-15T06:08:27.783Z,62.12
2019-03-15T06:08:59.043Z,62.37
2019-03-15T06:09:30.552Z,62.12
2019-03-15T06:10:01.760Z,62.26
2019-03-15T06:10:32.975Z,61.97
2019-03-15T06:11:04.229Z,61.94
2019-03-15T06:11:35.436Z,62.07
2019-03-15T06:12:06.633Z,61.91
2019-03-15T06:12:37.877Z,61.71
2019-03-15T06:13:09.074Z,61.87
2019-03-15T06:13:40.287Z,61.39
2019-03-15T06:14:11.492Z,61.04
2019-03-15T06:14:42.706Z,60.88
2019-03-15T06:15:13.931Z,60.22
2019-03-15T06:15:45.138Z,60.16
2019-03-15T06:16:16.387Z,60.16
2019-03-15T06:16:47.605Z,59.45
2019-03-15T06:17:18.815Z,59.19
2019-03-15T06:17:50.025Z,59.11
2019-03-15T06:18:21.261Z,59.24
2019-03-15T06:18:52.481Z,59.72
2019-03-15T06:19:23.688Z,58.71
2019-03-15T06:19:54.884Z,58.38
2019-03-15T06:20:26.091Z,58.65
2019-03-15T06:20:57.332Z,58.74
2019-03-15T06:21:28.542Z,57.93
2019-03-15T06:21:59.755Z,58.18
2019-03-15T06:22:30.986Z,56.34
2019-03-15T06:23:02.181Z,56.89
2019-03-15T06:23:33.432Z,56.10
2019-03-15T06:24:06.463Z,55.79
2019-03-15T06:24:37.672Z,57.09
2019-03-15T06:25:08.881Z,56.95
2019-03-15T06:25:40.112Z,56.40
2019-03-15T06:26:11.323Z,55.02
2019-03-15T06:26:42.518Z,54.85
2019-03-15T06:27:13.731Z,54.61
2019-03-15T06:27:44.974Z,55.29
2019-03-15T06:28:16.228Z,54.54
2019-03-15T06:28:47.449Z,54.61
2019-03-15T06:29:18.838Z,55.53
2019-03-15T06:29:50.046Z,55.90
2019-03-15T06:30:21.255Z,56.11
2019-03-15T06:30:52.480Z,56.31
2019-03-15T06:31:23.692Z,55.93
2019-03-15T06:31:54.902Z,54.80
2019-03-15T06:32:26.092Z,54.48
2019-03-15T06:32:57.289Z,54.58
2019-03-15T06:33:29.017Z,54.90
2019-03-15T06:34:00.241Z,54.74
2019-03-15T06:34:31.446Z,54.53
2019-03-15T06:35:02.649Z,54.37
2019-03-15T06:35:33.855Z,54.54
2019-03-15T06:36:05.072Z,55.84
2019-03-15T06:36:36.278Z,56.34
2019-03-15T06:37:07.524Z,56.47
2019-03-15T06:37:38.743Z,56.34
2019-03-15T06:38:09.940Z,55.09
2019-03-15T06:38:41.131Z,54.55
2019-03-15T06:39:12.344Z,55.40
2019-03-15T06:39:43.544Z,55.00
2019-03-15T06:40:14.751Z,54.83
2019-03-15T06:40:45.973Z,55.14
2019-03-15T06:41:17.161Z,55.19
2019-03-15T06:41:48.401Z,55.15
2019-03-15T06:42:19.600Z,54.25